Time;durP1;ratioP1;P1;durP2;ratioP2;P2;SDS_P1;SDS_P2;PMS_P1;PMS_P2;Temp;Humidity;BMP_temperature;BMP_pressure;BME280_temperature;BME280_humidity;BME280_pressure;Samples;Min_cycle;Max_cycle;Signal;HPM_P1;HPM_P2
2022/09/03 00:00:09;;;;;;;;;;;;;;;;;;351237;28;853;-64
2022/09/03 00:00:24;;;;;;;;;;;;;;;;;;351292;28;967;-64
2022/09/03 00:00:36;;;;;;;;;;;;;;;;;;351339;28;932;-65
2022/09/03 00:00:51;;;;;;;;;;;;;;;;;;351353;28;869;-65
2022/09/03 00:01:04;;;;;;;;;;;;;;;;;;351249;28;932;-65
2022/09/03 00:01:20;;;;;;;;;;;;;;;;;;351307;28;999;-64
2022/09/03 00:01:39;;;;;;;;;;;;;;;;;;351318;28;869;-65
2022/09/03 00:01:57;;;;;;;;;;;;;;;;;;351309;28;805;-65
2022/09/03 00:02:14;;;;;;;;;;;;;;;;;;351229;28;964;-65
2022/09/03 00:02:32;;;;;;;;;;;;;;;;;;351283;28;948;-65
2022/09/03 00:02:44;;;;;;;;;;;;;;;;;;351264;28;991;-65
2022/09/03 00:03:14;;;;;;;;;;;;;;;;;;351308;28;1015;-65
2022/09/03 00:03:33;;;;;;;;;;;;;;;;;;351231;28;1963;-65
2022/09/03 00:03:49;;;;;;;;;;;;;;;;;;351303;28;1004;-65
2022/09/03 00:04:07;;;;;;;;;;;;;;;;;;351246;28;1027;-64
2022/09/03 00:04:43;;;;;;;;;;;;;;;;;;351328;28;877;-65
2022/09/03 00:04:59;;;;;;;;;;;;;;;;;;349712;28;1113;-65
2022/09/03 00:05:27;;;;;;;;;;;;;;;;;;349691;28;1016;-64
2022/09/03 00:05:40;;;;;;;;;;;;;;;;;;349684;28;917;-65
2022/09/03 00:05:59;;;;;;;;;;;;;;;;;;350110;28;1043;-65
2022/09/03 00:06:14;;;;;;;;;;;;;;;;;;351246;28;924;-65
2022/09/03 00:06:29;;;;;;;;;;;;;;;;;;351331;28;785;-65
2022/09/03 00:06:45;;;;;;;;;;;;;;;;;;351296;28;923;-65
2022/09/03 00:07:04;;;;;;;;;;;;;;;;;;351325;28;928;-64
2022/09/03 00:07:17;;;;;;;;;;;;;;;;;;351265;28;809;-65
2022/09/03 00:07:39;;;;;;;;;;;;;;;;;;351316;28;920;-65
2022/09/03 00:08:13;;;;;;;;;;;;;;;;;;351292;28;912;-65
2022/09/03 00:08:30;;;;;;;;;;;;;;;;;;349712;28;933;-65
2022/09/03 00:08:47;;;;;;;;;;;;;;;;;;350690;28;1224;-65
2022/09/03 00:09:00;;;;;;;;;;;;;;;;;;351290;28;1054;-65
2022/09/03 00:09:10;;;;;;;;;;;;;;;;;;351194;28;922;-65
2022/09/03 00:09:23;;;;;;;;;;;;;;;;;;351357;28;852;-65
2022/09/03 00:09:37;;;;;;;;;;;;;;;;;;351290;28;940;-65
2022/09/03 00:09:55;;;;;;;;;;;;;;;;;;351337;28;848;-65
2022/09/03 00:10:12;;;;;;;;;;;;;;;;;;351267;28;837;-65
2022/09/03 00:10:34;;;;;;;;;;;;;;;;;;351298;28;1015;-65
2022/09/03 00:10:49;;;;;;;;;;;;;;;;;;351315;28;1000;-65
2022/09/03 00:11:20;;;;;;;;;;;;;;;;;;351328;28;876;-64
2022/09/03 00:11:39;;;;;;;;;;;;;;;;;;351300;28;964;-65
2022/09/03 00:11:54;;;;;;;;;;;;;;;;;;351315;28;920;-65
2022/09/03 00:12:08;;;;;;;;;;;;;;;;;;351323;28;928;-65
2022/09/03 00:12:26;;;;;;;;;;;;;;;;;;351273;28;853;-65
2022/09/03 00:12:39;;;;;;;;;;;;;;;;;;351322;28;908;-65
2022/09/03 00:12:51;;;;;;;;;;;;;;;;;;351331;28;944;-65
2022/09/03 00:13:03;;;;;;;;;;;;;;;;;;351327;28;859;-65
2022/09/03 00:13:16;;;;;;;;;;;;;;;;;;351316;28;1025;-64
2022/09/03 00:13:29;;;;;;;;;;;;;;;;;;351307;28;909;-64
2022/09/03 00:13:53;;;;;;;;;;;;;;;;;;351344;28;821;-65
2022/09/03 00:14:14;;;;;;;;;;;;;;;;;;351258;28;956;-65
2022/09/03 00:14:33;;;;;;;;;;;;;;;;;;348169;28;1609;-65
2022/09/03 00:14:49;;;;;;;;;;;;;;;;;;349945;28;964;-65
2022/09/03 00:15:02;;;;;;;;;;;;;;;;;;349895;28;891;-65
2022/09/03 00:15:22;;;;;;;;;;;;;;;;;;349877;28;1031;-65
2022/09/03 00:15:34;;;;;;;;;;;;;;;;;;349854;28;1056;-65
2022/09/03 00:15:45;;;;;;;;;;;;;;;;;;349924;28;932;-65
2022/09/03 00:15:56;;;;;;;;;;;;;;;;;;349905;28;948;-65
2022/09/03 00:16:09;;;;;;;;;;;;;;;;;;349970;28;865;-65
2022/09/03 00:16:21;;;;;;;;;;;;;;;;;;349823;28;964;-65
2022/09/03 00:16:50;;;;;;;;;;;;;;;;;;349097;28;1403;-65
2022/09/03 00:17:15;;;;;;;;;;;;;;;;;;349864;28;1059;-65
2022/09/03 00:17:31;;;;;;;;;;;;;;;;;;349901;28;963;-65
2022/09/03 00:18:01;;;;;;;;;;;;;;;;;;349950;28;861;-65
2022/09/03 00:18:19;;;;;;;;;;;;;;;;;;349719;28;1186;-64
2022/09/03 00:18:32;;;;;;;;;;;;;;;;;;349832;28;968;-64
2022/09/03 00:18:45;;;;;;;;;;;;;;;;;;349790;28;1305;-64
2022/09/03 00:18:57;;;;;;;;;;;;;;;;;;349893;28;778;-65
2022/09/03 00:19:08;;;;;;;;;;;;;;;;;;349920;28;916;-64
2022/09/03 00:19:24;;;;;;;;;;;;;;;;;;349960;28;893;-65
2022/09/03 00:19:39;;;;;;;;;;;;;;;;;;349956;28;802;-65
2022/09/03 00:19:55;;;;;;;;;;;;;;;;;;349925;28;956;-65
2022/09/03 00:20:28;;;;;;;;;;;;;;;;;;349868;28;1035;-65
2022/09/03 00:20:43;;;;;;;;;;;;;;;;;;351086;28;908;-65
2022/09/03 00:20:58;;;;;;;;;;;;;;;;;;351814;28;1430;-65
2022/09/03 00:21:12;;;;;;;;;;;;;;;;;;352539;28;908;-65
2022/09/03 00:21:30;;;;;;;;;;;;;;;;;;352515;28;983;-65
2022/09/03 00:21:46;;;;;;;;;;;;;;;;;;351795;28;960;-65
2022/09/03 00:21:59;;;;;;;;;;;;;;;;;;351329;27;982;-65
2022/09/03 00:22:12;;;;;;;;;;;;;;;;;;351272;28;805;-65
2022/09/03 00:22:28;;;;;;;;;;;;;;;;;;351258;28;975;-65
2022/09/03 00:22:40;;;;;;;;;;;;;;;;;;351172;28;952;-65
2022/09/03 00:22:52;;;;;;;;;;;;;;;;;;351307;28;916;-65
2022/09/03 00:23:04;;;;;;;;;;;;;;;;;;351333;28;794;-64
2022/09/03 00:23:21;;;;;;;;;;;;;;;;;;351288;28;870;-65
2022/09/03 00:23:32;;;;;;;;;;;;;;;;;;351289;28;967;-65
2022/09/03 00:23:45;;;;;;;;;;;;;;;;;;351356;28;971;-65
2022/09/03 00:23:56;;;;;;;;;;;;;;;;;;351282;28;932;-65
2022/09/03 00:24:09;;;;;;;;;;;;;;;;;;351384;28;876;-65
2022/09/03 00:24:22;;;;;;;;;;;;;;;;;;351316;28;917;-65
2022/09/03 00:24:34;;;;;;;;;;;;;;;;;;351293;28;821;-65
2022/09/03 00:24:45;;;;;;;;;;;;;;;;;;351227;28;928;-65
2022/09/03 00:24:59;;;;;;;;;;;;;;;;;;351358;28;794;-65
2022/09/03 00:25:14;;;;;;;;;;;;;;;;;;351266;28;1006;-65
2022/09/03 00:25:36;;;;;;;;;;;;;;;;;;351342;28;880;-65
2022/09/03 00:25:51;;;;;;;;;;;;;;;;;;351255;28;778;-65
2022/09/03 00:26:11;;;;;;;;;;;;;;;;;;351276;28;1075;-65
2022/09/03 00:26:26;;;;;;;;;;;;;;;;;;351371;28;995;-64
2022/09/03 00:26:36;;;;;;;;;;;;;;;;;;351223;28;928;-65
2022/09/03 00:26:50;;;;;;;;;;;;;;;;;;351278;28;988;-65
2022/09/03 00:27:05;;;;;;;;;;;;;;;;;;351270;28;979;-64
2022/09/03 00:27:17;;;;;;;;;;;;;;;;;;351306;28;936;-65
2022/09/03 00:27:28;;;;;;;;;;;;;;;;;;351418;28;845;-64
2022/09/03 00:27:40;;;;;;;;;;;;;;;;;;351318;28;952;-65
2022/09/03 00:27:53;;;;;;;;;;;;;;;;;;351227;28;1418;-65
2022/09/03 00:28:06;;;;;;;;;;;;;;;;;;351353;27;944;-65
2022/09/03 00:28:19;;;;;;;;;;;;;;;;;;351321;28;992;-65
2022/09/03 00:28:35;;;;;;;;;;;;;;;;;;351234;28;1019;-65
2022/09/03 00:28:49;;;;;;;;;;;;;;;;;;351319;28;975;-65
2022/09/03 00:29:08;;;;;;;;;;;;;;;;;;351291;28;975;-65
2022/09/03 00:29:23;;;;;;;;;;;;;;;;;;351270;28;975;-65
2022/09/03 00:29:47;;;;;;;;;;;;;;;;;;351348;28;873;-65
2022/09/03 00:30:00;;;;;;;;;;;;;;;;;;348900;28;1943;-65
2022/09/03 00:30:12;;;;;;;;;;;;;;;;;;348516;28;968;-65
2022/09/03 00:30:23;;;;;;;;;;;;;;;;;;348545;28;987;-65
2022/09/03 00:30:34;;;;;;;;;;;;;;;;;;348528;28;972;-65
2022/09/03 00:30:45;;;;;;;;;;;;;;;;;;348525;28;928;-65
2022/09/03 00:31:06;;;;;;;;;;;;;;;;;;348084;28;1850;-65
2022/09/03 00:31:31;;;;;;;;;;;;;;;;;;349416;28;1434;-65
2022/09/03 00:31:50;;;;;;;;;;;;;;;;;;349906;28;928;-65
2022/09/03 00:32:12;;;;;;;;;;;;;;;;;;349917;28;1000;-65
2022/09/03 00:32:41;;;;;;;;;;;;;;;;;;349935;28;824;-65
2022/09/03 00:32:52;;;;;;;;;;;;;;;;;;349870;28;863;-64
2022/09/03 00:33:20;;;;;;;;;;;;;;;;;;349852;28;1098;-65
2022/09/03 00:33:31;;;;;;;;;;;;;;;;;;349926;28;936;-65
2022/09/03 00:33:43;;;;;;;;;;;;;;;;;;349891;28;880;-64
2022/09/03 00:33:57;;;;;;;;;;;;;;;;;;349896;28;1098;-64
2022/09/03 00:34:26;;;;;;;;;;;;;;;;;;349926;28;940;-65
2022/09/03 00:34:42;;;;;;;;;;;;;;;;;;349881;28;897;-65
2022/09/03 00:34:56;;;;;;;;;;;;;;;;;;349924;28;957;-65
2022/09/03 00:35:13;;;;;;;;;;;;;;;;;;349854;28;921;-65
2022/09/03 00:35:28;;;;;;;;;;;;;;;;;;349900;28;936;-65
2022/09/03 00:35:57;;;;;;;;;;;;;;;;;;349893;28;897;-65
2022/09/03 00:36:15;;;;;;;;;;;;;;;;;;349950;28;893;-65
2022/09/03 00:36:31;;;;;;;;;;;;;;;;;;349918;28;1015;-65
2022/09/03 00:36:44;;;;;;;;;;;;;;;;;;349919;28;975;-64
2022/09/03 00:36:55;;;;;;;;;;;;;;;;;;349935;28;929;-65
2022/09/03 00:37:06;;;;;;;;;;;;;;;;;;349969;28;837;-65
2022/09/03 00:37:16;;;;;;;;;;;;;;;;;;349850;28;913;-64
2022/09/03 00:37:28;;;;;;;;;;;;;;;;;;349930;28;897;-65
2022/09/03 00:37:40;;;;;;;;;;;;;;;;;;349935;28;1004;-65
2022/09/03 00:37:52;;;;;;;;;;;;;;;;;;349910;28;943;-65
2022/09/03 00:38:02;;;;;;;;;;;;;;;;;;349931;28;944;-64
2022/09/03 00:38:13;;;;;;;;;;;;;;;;;;349872;28;984;-64
2022/09/03 00:38:23;;;;;;;;;;;;;;;;;;349003;28;1521;-64
2022/09/03 00:38:33;;;;;;;;;;;;;;;;;;349376;28;1000;-65
2022/09/03 00:38:43;;;;;;;;;;;;;;;;;;348571;28;960;-65
2022/09/03 00:38:54;;;;;;;;;;;;;;;;;;348507;28;976;-65
2022/09/03 00:39:06;;;;;;;;;;;;;;;;;;348500;28;1091;-65
2022/09/03 00:39:17;;;;;;;;;;;;;;;;;;351159;28;1149;-65
2022/09/03 00:39:27;;;;;;;;;;;;;;;;;;351244;28;975;-65
2022/09/03 00:39:38;;;;;;;;;;;;;;;;;;351220;28;936;-64
2022/09/03 00:39:48;;;;;;;;;;;;;;;;;;351158;28;1197;-65
2022/09/03 00:39:59;;;;;;;;;;;;;;;;;;351256;28;877;-65
2022/09/03 00:40:12;;;;;;;;;;;;;;;;;;351133;28;1146;-65
2022/09/03 00:40:25;;;;;;;;;;;;;;;;;;351234;28;857;-65
2022/09/03 00:41:11;;;;;;;;;;;;;;;;;;351197;28;932;-65
2022/09/03 00:41:30;;;;;;;;;;;;;;;;;;346918;28;910;-66
2022/09/03 00:42:08;;;;;;;;;;;;;;;;;;347008;28;1019;-65
2022/09/03 00:42:26;;;;;;;;;;;;;;;;;;346295;28;1519;-64
2022/09/03 00:42:47;;;;;;;;;;;;;;;;;;346984;28;988;-65
2022/09/03 00:43:06;;;;;;;;;;;;;;;;;;346935;28;870;-65
2022/09/03 00:43:18;;;;;;;;;;;;;;;;;;347001;28;917;-65
2022/09/03 00:43:34;;;;;;;;;;;;;;;;;;346952;28;1031;-65
2022/09/03 00:44:03;;;;;;;;;;;;;;;;;;346948;28;929;-65
2022/09/03 00:44:32;;;;;;;;;;;;;;;;;;347719;28;1122;-65
2022/09/03 00:45:11;;;;;;;;;;;;;;;;;;348484;28;956;-65
2022/09/03 00:45:50;;;;;;;;;;;;;;;;;;348314;28;1049;-65
2022/09/03 00:46:19;;;;;;;;;;;;;;;;;;344244;28;933;-64
2022/09/03 00:46:40;;;;;;;;;;;;;;;;;;347104;28;1015;-64
2022/09/03 00:47:00;;;;;;;;;;;;;;;;;;348459;28;833;-65
2022/09/03 00:47:29;;;;;;;;;;;;;;;;;;348388;28;917;-65
2022/09/03 00:47:45;;;;;;;;;;;;;;;;;;348448;28;965;-65
2022/09/03 00:48:14;;;;;;;;;;;;;;;;;;348511;28;866;-64
2022/09/03 00:48:26;;;;;;;;;;;;;;;;;;348487;28;1000;-65
2022/09/03 00:48:50;;;;;;;;;;;;;;;;;;348530;28;999;-65
2022/09/03 00:49:13;;;;;;;;;;;;;;;;;;348475;28;1031;-65
2022/09/03 00:49:26;;;;;;;;;;;;;;;;;;348513;28;921;-65
2022/09/03 00:49:45;;;;;;;;;;;;;;;;;;348498;28;980;-65
2022/09/03 00:50:04;;;;;;;;;;;;;;;;;;348991;28;1493;-64
2022/09/03 00:50:24;;;;;;;;;;;;;;;;;;350111;28;741;-65
2022/09/03 00:50:40;;;;;;;;;;;;;;;;;;350215;28;816;-64
2022/09/03 00:50:59;;;;;;;;;;;;;;;;;;350175;28;983;-65
2022/09/03 00:51:09;;;;;;;;;;;;;;;;;;350182;28;802;-65
2022/09/03 00:51:27;;;;;;;;;;;;;;;;;;350202;28;948;-65
2022/09/03 00:51:43;;;;;;;;;;;;;;;;;;350251;28;1071;-65
2022/09/03 00:52:10;;;;;;;;;;;;;;;;;;350156;28;987;-65
2022/09/03 00:52:23;;;;;;;;;;;;;;;;;;350181;28;971;-65
2022/09/03 00:52:52;;;;;;;;;;;;;;;;;;350182;28;953;-65
2022/09/03 00:53:02;;;;;;;;;;;;;;;;;;350088;28;784;-65
2022/09/03 00:53:19;;;;;;;;;;;;;;;;;;350191;28;971;-64
2022/09/03 00:53:38;;;;;;;;;;;;;;;;;;350159;28;987;-65
2022/09/03 00:53:50;;;;;;;;;;;;;;;;;;350100;28;987;-65
2022/09/03 00:54:04;;;;;;;;;;;;;;;;;;350195;28;893;-65
2022/09/03 00:54:30;;;;;;;;;;;;;;;;;;350166;28;924;-65
2022/09/03 00:54:45;;;;;;;;;;;;;;;;;;350152;28;924;-65
2022/09/03 00:55:10;;;;;;;;;;;;;;;;;;350177;28;932;-65
2022/09/03 00:55:39;;;;;;;;;;;;;;;;;;350170;28;960;-65
2022/09/03 00:56:00;;;;;;;;;;;;;;;;;;350161;28;932;-64
2022/09/03 00:56:21;;;;;;;;;;;;;;;;;;350130;28;948;-65
2022/09/03 00:56:38;;;;;;;;;;;;;;;;;;350170;28;1011;-65
2022/09/03 00:57:14;;;;;;;;;;;;;;;;;;350145;28;928;-65
2022/09/03 00:57:27;;;;;;;;;;;;;;;;;;350136;28;961;-65
2022/09/03 00:57:49;;;;;;;;;;;;;;;;;;350105;28;983;-65
2022/09/03 00:57:59;;;;;;;;;;;;;;;;;;350122;28;913;-64
2022/09/03 00:58:26;;;;;;;;;;;;;;;;;;350149;28;846;-64
2022/09/03 00:58:42;;;;;;;;;;;;;;;;;;350163;28;928;-64
2022/09/03 00:59:02;;;;;;;;;;;;;;;;;;350162;28;920;-64
2022/09/03 00:59:17;;;;;;;;;;;;;;;;;;350104;28;913;-64
2022/09/03 00:59:48;;;;;;;;;;;;;;;;;;350200;28;928;-65
2022/09/03 01:00:04;;;;;;;;;;;;;;;;;;348597;28;1106;-64
2022/09/03 01:00:19;;;;;;;;;;;;;;;;;;348715;28;875;-64
2022/09/03 01:00:29;;;;;;;;;;;;;;;;;;348736;28;798;-64
2022/09/03 01:00:42;;;;;;;;;;;;;;;;;;348774;28;991;-64
2022/09/03 01:00:52;;;;;;;;;;;;;;;;;;348792;28;932;-64
2022/09/03 01:01:10;;;;;;;;;;;;;;;;;;348746;28;960;-64
2022/09/03 01:01:25;;;;;;;;;;;;;;;;;;348743;28;881;-64
2022/09/03 01:01:54;;;;;;;;;;;;;;;;;;348800;28;765;-65
2022/09/03 01:02:16;;;;;;;;;;;;;;;;;;348770;28;1024;-65
2022/09/03 01:02:34;;;;;;;;;;;;;;;;;;348789;28;893;-65
2022/09/03 01:03:00;;;;;;;;;;;;;;;;;;348780;28;924;-65
2022/09/03 01:03:21;;;;;;;;;;;;;;;;;;348754;28;897;-64
2022/09/03 01:03:54;;;;;;;;;;;;;;;;;;348785;28;1046;-64
2022/09/03 01:04:11;;;;;;;;;;;;;;;;;;349554;28;1439;-64
2022/09/03 01:04:34;;;;;;;;;;;;;;;;;;350141;28;833;-65
2022/09/03 01:04:54;;;;;;;;;;;;;;;;;;350167;28;944;-65
2022/09/03 01:05:24;;;;;;;;;;;;;;;;;;350146;28;913;-65
2022/09/03 01:06:02;;;;;;;;;;;;;;;;;;350145;28;948;-65
2022/09/03 01:06:12;;;;;;;;;;;;;;;;;;350137;28;988;-65
2022/09/03 01:06:41;;;;;;;;;;;;;;;;;;349379;28;1904;-64
2022/09/03 01:06:59;;;;;;;;;;;;;;;;;;348793;28;925;-65
2022/09/03 01:07:20;;;;;;;;;;;;;;;;;;348816;28;913;-64
2022/09/03 01:07:39;;;;;;;;;;;;;;;;;;348736;28;992;-65
2022/09/03 01:08:08;;;;;;;;;;;;;;;;;;348814;28;912;-64
2022/09/03 01:08:31;;;;;;;;;;;;;;;;;;348730;28;944;-65
2022/09/03 01:09:00;;;;;;;;;;;;;;;;;;348839;28;940;-65
2022/09/03 01:09:15;;;;;;;;;;;;;;;;;;348701;28;1011;-65
2022/09/03 01:09:34;;;;;;;;;;;;;;;;;;348767;28;932;-65
2022/09/03 01:10:03;;;;;;;;;;;;;;;;;;348795;28;987;-64
2022/09/03 01:10:33;;;;;;;;;;;;;;;;;;348710;28;969;-65
2022/09/03 01:10:48;;;;;;;;;;;;;;;;;;348742;28;909;-64
2022/09/03 01:11:17;;;;;;;;;;;;;;;;;;348735;28;909;-64
2022/09/03 01:11:46;;;;;;;;;;;;;;;;;;348787;28;1016;-65
2022/09/03 01:12:06;;;;;;;;;;;;;;;;;;348729;28;933;-65
2022/09/03 01:12:30;;;;;;;;;;;;;;;;;;348729;28;1039;-65
2022/09/03 01:12:54;;;;;;;;;;;;;;;;;;348698;28;1011;-64
2022/09/03 01:13:04;;;;;;;;;;;;;;;;;;348775;28;932;-65
2022/09/03 01:13:14;;;;;;;;;;;;;;;;;;348772;28;984;-64
2022/09/03 01:13:32;;;;;;;;;;;;;;;;;;348746;28;949;-64
2022/09/03 01:13:45;;;;;;;;;;;;;;;;;;348745;28;953;-65
2022/09/03 01:14:05;;;;;;;;;;;;;;;;;;348455;28;1571;-65
2022/09/03 01:14:29;;;;;;;;;;;;;;;;;;348654;28;968;-65
2022/09/03 01:14:49;;;;;;;;;;;;;;;;;;349877;28;1495;-64
2022/09/03 01:15:09;;;;;;;;;;;;;;;;;;348773;28;995;-65
2022/09/03 01:15:26;;;;;;;;;;;;;;;;;;348747;28;873;-65
2022/09/03 01:15:53;;;;;;;;;;;;;;;;;;348737;28;980;-65
2022/09/03 01:16:09;;;;;;;;;;;;;;;;;;348838;28;865;-64
2022/09/03 01:16:35;;;;;;;;;;;;;;;;;;348795;28;905;-65
2022/09/03 01:16:48;;;;;;;;;;;;;;;;;;348707;28;988;-64
2022/09/03 01:17:05;;;;;;;;;;;;;;;;;;348783;28;815;-64
2022/09/03 01:17:24;;;;;;;;;;;;;;;;;;348718;28;980;-64
2022/09/03 01:17:58;;;;;;;;;;;;;;;;;;348725;28;925;-65
2022/09/03 01:18:08;;;;;;;;;;;;;;;;;;349899;28;988;-65
2022/09/03 01:18:21;;;;;;;;;;;;;;;;;;349828;28;1179;-65
2022/09/03 01:18:50;;;;;;;;;;;;;;;;;;348799;28;916;-64
2022/09/03 01:19:36;;;;;;;;;;;;;;;;;;348681;28;845;-65
2022/09/03 01:19:46;;;;;;;;;;;;;;;;;;349991;28;1012;-64
2022/09/03 01:20:02;;;;;;;;;;;;;;;;;;349837;28;1141;-64
2022/09/03 01:20:27;;;;;;;;;;;;;;;;;;349968;28;1146;-64
2022/09/03 01:20:38;;;;;;;;;;;;;;;;;;349971;28;778;-65
2022/09/03 01:20:58;;;;;;;;;;;;;;;;;;350019;28;934;-64
2022/09/03 01:21:27;;;;;;;;;;;;;;;;;;348589;28;964;-65
2022/09/03 01:21:50;;;;;;;;;;;;;;;;;;349910;28;956;-65
2022/09/03 01:22:23;;;;;;;;;;;;;;;;;;349970;28;928;-64
2022/09/03 01:22:52;;;;;;;;;;;;;;;;;;349851;28;1027;-65
2022/09/03 01:23:19;;;;;;;;;;;;;;;;;;348661;28;1006;-65
2022/09/03 01:23:53;;;;;;;;;;;;;;;;;;348616;28;1906;-64
2022/09/03 01:24:06;;;;;;;;;;;;;;;;;;349935;28;893;-65
2022/09/03 01:24:32;;;;;;;;;;;;;;;;;;349291;28;1049;-65
2022/09/03 01:25:10;;;;;;;;;;;;;;;;;;348789;28;774;-65
2022/09/03 01:25:30;;;;;;;;;;;;;;;;;;348761;28;948;-64
2022/09/03 01:25:59;;;;;;;;;;;;;;;;;;348707;28;912;-65
2022/09/03 01:26:21;;;;;;;;;;;;;;;;;;348763;28;924;-65
2022/09/03 01:26:47;;;;;;;;;;;;;;;;;;348745;28;952;-65
2022/09/03 01:27:00;;;;;;;;;;;;;;;;;;348719;28;980;-65
2022/09/03 01:27:18;;;;;;;;;;;;;;;;;;348750;28;928;-64
2022/09/03 01:27:45;;;;;;;;;;;;;;;;;;348792;28;924;-64
2022/09/03 01:28:07;;;;;;;;;;;;;;;;;;348794;28;928;-64
2022/09/03 01:28:21;;;;;;;;;;;;;;;;;;348728;28;904;-64
2022/09/03 01:28:41;;;;;;;;;;;;;;;;;;348763;28;991;-65
2022/09/03 01:28:53;;;;;;;;;;;;;;;;;;348727;28;941;-65
2022/09/03 01:29:13;;;;;;;;;;;;;;;;;;348718;28;999;-65
2022/09/03 01:29:33;;;;;;;;;;;;;;;;;;348726;28;997;-65
2022/09/03 01:29:43;;;;;;;;;;;;;;;;;;349915;28;1496;-64
2022/09/03 01:29:54;;;;;;;;;;;;;;;;;;350130;28;1725;-64
2022/09/03 01:30:06;;;;;;;;;;;;;;;;;;350108;28;916;-64
2022/09/03 01:30:18;;;;;;;;;;;;;;;;;;349352;28;2072;-65
2022/09/03 01:30:30;;;;;;;;;;;;;;;;;;351603;28;844;-65
2022/09/03 01:30:48;;;;;;;;;;;;;;;;;;351545;28;947;-64
2022/09/03 01:31:01;;;;;;;;;;;;;;;;;;351502;28;924;-65
2022/09/03 01:31:25;;;;;;;;;;;;;;;;;;351534;28;818;-65
2022/09/03 01:31:43;;;;;;;;;;;;;;;;;;350203;28;1860;-65
2022/09/03 01:32:14;;;;;;;;;;;;;;;;;;348770;28;790;-65
2022/09/03 01:32:26;;;;;;;;;;;;;;;;;;348695;28;741;-64
2022/09/03 01:32:45;;;;;;;;;;;;;;;;;;348660;28;1007;-64
2022/09/03 01:33:02;;;;;;;;;;;;;;;;;;348727;28;809;-64
2022/09/03 01:33:31;;;;;;;;;;;;;;;;;;349346;28;1896;-65
2022/09/03 01:34:00;;;;;;;;;;;;;;;;;;350241;28;1876;-65
2022/09/03 01:34:16;;;;;;;;;;;;;;;;;;351487;28;849;-65
2022/09/03 01:34:34;;;;;;;;;;;;;;;;;;351515;28;999;-65
2022/09/03 01:34:52;;;;;;;;;;;;;;;;;;351513;28;952;-65
2022/09/03 01:35:23;;;;;;;;;;;;;;;;;;351442;28;927;-64
2022/09/03 01:35:52;;;;;;;;;;;;;;;;;;351402;28;927;-64
2022/09/03 01:36:25;;;;;;;;;;;;;;;;;;351442;28;984;-64
2022/09/03 01:36:41;;;;;;;;;;;;;;;;;;349943;28;842;-65
2022/09/03 01:37:03;;;;;;;;;;;;;;;;;;349936;28;1029;-65
2022/09/03 01:37:23;;;;;;;;;;;;;;;;;;349959;28;885;-64
2022/09/03 01:37:33;;;;;;;;;;;;;;;;;;349870;28;988;-65
2022/09/03 01:37:52;;;;;;;;;;;;;;;;;;351532;28;943;-64
2022/09/03 01:38:05;;;;;;;;;;;;;;;;;;351466;28;1151;-65
2022/09/03 01:38:30;;;;;;;;;;;;;;;;;;351499;28;987;-65
2022/09/03 01:38:53;;;;;;;;;;;;;;;;;;351450;28;1023;-64
2022/09/03 01:39:06;;;;;;;;;;;;;;;;;;351433;28;1043;-64
2022/09/03 01:39:23;;;;;;;;;;;;;;;;;;351527;28;798;-64
2022/09/03 01:39:43;;;;;;;;;;;;;;;;;;351468;28;1039;-65
2022/09/03 01:40:12;;;;;;;;;;;;;;;;;;349593;28;1266;-64
2022/09/03 01:40:29;;;;;;;;;;;;;;;;;;348704;28;968;-65
2022/09/03 01:40:54;;;;;;;;;;;;;;;;;;348785;28;774;-64
2022/09/03 01:42:14;;;;;;;;;;;;;;;;;;349131;28;1337;-65
2022/09/03 01:42:49;;;;;;;;;;;;;;;;;;349804;28;1466;-64
2022/09/03 01:43:00;;;;;;;;;;;;;;;;;;349982;28;880;-64
2022/09/03 01:43:13;;;;;;;;;;;;;;;;;;350011;28;924;-64
2022/09/03 01:43:35;;;;;;;;;;;;;;;;;;349924;28;1910;-64
2022/09/03 01:43:57;;;;;;;;;;;;;;;;;;350011;28;1058;-65
2022/09/03 01:44:18;;;;;;;;;;;;;;;;;;349963;28;914;-65
2022/09/03 01:44:38;;;;;;;;;;;;;;;;;;348794;28;955;-64
2022/09/03 01:45:07;;;;;;;;;;;;;;;;;;348747;28;797;-64
2022/09/03 01:45:27;;;;;;;;;;;;;;;;;;348716;28;967;-64
2022/09/03 01:45:50;;;;;;;;;;;;;;;;;;348765;28;980;-64
2022/09/03 01:46:03;;;;;;;;;;;;;;;;;;348640;28;944;-64
2022/09/03 01:46:23;;;;;;;;;;;;;;;;;;348688;28;875;-64
2022/09/03 01:46:41;;;;;;;;;;;;;;;;;;348769;28;770;-65
2022/09/03 01:46:59;;;;;;;;;;;;;;;;;;348686;28;895;-65
2022/09/03 01:47:13;;;;;;;;;;;;;;;;;;348696;28;983;-64
2022/09/03 01:47:32;;;;;;;;;;;;;;;;;;348681;28;836;-65
2022/09/03 01:47:58;;;;;;;;;;;;;;;;;;348730;28;975;-65
2022/09/03 01:48:45;;;;;;;;;;;;;;;;;;348616;28;1095;-64
2022/09/03 01:49:04;;;;;;;;;;;;;;;;;;348421;28;1075;-65
2022/09/03 01:49:29;;;;;;;;;;;;;;;;;;348527;28;1027;-64
2022/09/03 01:49:44;;;;;;;;;;;;;;;;;;348605;28;833;-64
2022/09/03 01:50:05;;;;;;;;;;;;;;;;;;348558;28;944;-65
2022/09/03 01:50:27;;;;;;;;;;;;;;;;;;348476;28;888;-65
2022/09/03 01:50:48;;;;;;;;;;;;;;;;;;348544;28;933;-65
2022/09/03 01:51:01;;;;;;;;;;;;;;;;;;348575;28;790;-64
2022/09/03 01:51:22;;;;;;;;;;;;;;;;;;348552;28;818;-64
2022/09/03 01:51:33;;;;;;;;;;;;;;;;;;348498;28;1118;-65
2022/09/03 01:51:44;;;;;;;;;;;;;;;;;;348521;28;1124;-65
2022/09/03 01:51:58;;;;;;;;;;;;;;;;;;348718;28;1108;-65
2022/09/03 01:52:19;;;;;;;;;;;;;;;;;;348651;28;925;-65
2022/09/03 01:52:36;;;;;;;;;;;;;;;;;;348670;28;952;-64
2022/09/03 01:52:53;;;;;;;;;;;;;;;;;;348680;28;928;-64
2022/09/03 01:53:09;;;;;;;;;;;;;;;;;;348659;28;972;-65
2022/09/03 01:53:37;;;;;;;;;;;;;;;;;;348665;28;927;-64
2022/09/03 01:53:58;;;;;;;;;;;;;;;;;;348618;28;1106;-65
2022/09/03 01:54:09;;;;;;;;;;;;;;;;;;348722;28;920;-64
2022/09/03 01:54:33;;;;;;;;;;;;;;;;;;348615;28;916;-64
2022/09/03 01:55:00;;;;;;;;;;;;;;;;;;348729;28;909;-64
2022/09/03 01:55:29;;;;;;;;;;;;;;;;;;348740;28;1020;-64
2022/09/03 01:55:56;;;;;;;;;;;;;;;;;;348732;28;1500;-65
2022/09/03 01:56:25;;;;;;;;;;;;;;;;;;348683;28;971;-64
2022/09/03 01:56:55;;;;;;;;;;;;;;;;;;348688;28;948;-64
2022/09/03 01:57:33;;;;;;;;;;;;;;;;;;348700;28;965;-65
2022/09/03 01:57:56;;;;;;;;;;;;;;;;;;349573;28;1888;-64
2022/09/03 01:58:20;;;;;;;;;;;;;;;;;;351508;28;927;-64
2022/09/03 01:58:34;;;;;;;;;;;;;;;;;;351403;28;916;-64
2022/09/03 01:58:45;;;;;;;;;;;;;;;;;;351512;28;939;-64
2022/09/03 01:59:14;;;;;;;;;;;;;;;;;;351530;28;916;-64
2022/09/03 01:59:30;;;;;;;;;;;;;;;;;;351398;28;932;-64
2022/09/03 01:59:48;;;;;;;;;;;;;;;;;;351471;28;920;-64
2022/09/03 02:00:01;;;;;;;;;;;;;;;;;;351513;28;924;-64
2022/09/03 02:00:21;;;;;;;;;;;;;;;;;;349536;28;1632;-65
2022/09/03 02:00:34;;;;;;;;;;;;;;;;;;350029;28;810;-64
2022/09/03 02:00:47;;;;;;;;;;;;;;;;;;350072;28;956;-64
2022/09/03 02:01:00;;;;;;;;;;;;;;;;;;350039;28;925;-64
2022/09/03 02:01:14;;;;;;;;;;;;;;;;;;350009;27;842;-65
2022/09/03 02:01:29;;;;;;;;;;;;;;;;;;350065;28;1130;-64
2022/09/03 02:01:42;;;;;;;;;;;;;;;;;;350034;28;960;-64
2022/09/03 02:01:58;;;;;;;;;;;;;;;;;;350090;28;924;-64
2022/09/03 02:02:22;;;;;;;;;;;;;;;;;;350070;28;937;-64
2022/09/03 02:02:34;;;;;;;;;;;;;;;;;;350015;28;795;-64
2022/09/03 02:02:49;;;;;;;;;;;;;;;;;;350062;28;964;-65
2022/09/03 02:03:05;;;;;;;;;;;;;;;;;;350102;28;952;-64
2022/09/03 02:03:16;;;;;;;;;;;;;;;;;;349877;28;1053;-65
2022/09/03 02:03:33;;;;;;;;;;;;;;;;;;349958;28;1976;-64
2022/09/03 02:03:44;;;;;;;;;;;;;;;;;;350066;28;925;-64
2022/09/03 02:03:57;;;;;;;;;;;;;;;;;;350082;28;940;-64
2022/09/03 02:04:18;;;;;;;;;;;;;;;;;;350022;28;876;-64
2022/09/03 02:04:30;;;;;;;;;;;;;;;;;;350066;28;951;-64
2022/09/03 02:04:41;;;;;;;;;;;;;;;;;;349951;28;987;-64
2022/09/03 02:05:17;;;;;;;;;;;;;;;;;;350090;28;1755;-65
2022/09/03 02:05:28;;;;;;;;;;;;;;;;;;350741;28;1143;-64
2022/09/03 02:05:42;;;;;;;;;;;;;;;;;;350056;28;928;-65
2022/09/03 02:05:52;;;;;;;;;;;;;;;;;;350113;28;773;-64
2022/09/03 02:06:02;;;;;;;;;;;;;;;;;;350024;28;955;-65
2022/09/03 02:06:13;;;;;;;;;;;;;;;;;;350077;28;908;-65
2022/09/03 02:06:24;;;;;;;;;;;;;;;;;;350039;28;991;-64
2022/09/03 02:06:35;;;;;;;;;;;;;;;;;;350007;28;976;-65
2022/09/03 02:06:47;;;;;;;;;;;;;;;;;;350044;28;976;-64
2022/09/03 02:06:59;;;;;;;;;;;;;;;;;;350085;28;1115;-64
2022/09/03 02:07:09;;;;;;;;;;;;;;;;;;350025;28;971;-65
2022/09/03 02:07:21;;;;;;;;;;;;;;;;;;349942;28;1014;-64
2022/09/03 02:07:37;;;;;;;;;;;;;;;;;;350061;28;790;-65
2022/09/03 02:07:50;;;;;;;;;;;;;;;;;;350087;28;924;-64
2022/09/03 02:08:07;;;;;;;;;;;;;;;;;;349134;28;1309;-65
2022/09/03 02:08:18;;;;;;;;;;;;;;;;;;348639;28;936;-64
2022/09/03 02:08:28;;;;;;;;;;;;;;;;;;348754;28;787;-64
2022/09/03 02:08:40;;;;;;;;;;;;;;;;;;348692;28;753;-65
2022/09/03 02:08:51;;;;;;;;;;;;;;;;;;348685;28;913;-64
2022/09/03 02:09:01;;;;;;;;;;;;;;;;;;348673;28;821;-64
2022/09/03 02:09:11;;;;;;;;;;;;;;;;;;348622;28;908;-64
2022/09/03 02:09:22;;;;;;;;;;;;;;;;;;348688;28;920;-64
2022/09/03 02:09:32;;;;;;;;;;;;;;;;;;348723;28;830;-64
2022/09/03 02:09:42;;;;;;;;;;;;;;;;;;348637;28;984;-64
2022/09/03 02:09:52;;;;;;;;;;;;;;;;;;348696;28;913;-65
2022/09/03 02:10:05;;;;;;;;;;;;;;;;;;348625;28;816;-65
2022/09/03 02:10:18;;;;;;;;;;;;;;;;;;348708;28;1084;-65
2022/09/03 02:10:47;;;;;;;;;;;;;;;;;;348666;28;976;-65
2022/09/03 02:11:01;;;;;;;;;;;;;;;;;;348559;28;959;-65
2022/09/03 02:11:12;;;;;;;;;;;;;;;;;;348691;28;987;-65
2022/09/03 02:11:22;;;;;;;;;;;;;;;;;;348688;28;952;-64
2022/09/03 02:11:32;;;;;;;;;;;;;;;;;;348687;28;940;-64
2022/09/03 02:11:45;;;;;;;;;;;;;;;;;;348658;28;1089;-65